createdAt,value
2018-06-13T00:01:38.588Z,90.80
2018-06-13T00:04:13.269Z,90.80
2018-06-13T00:06:47.943Z,90.80
2018-06-13T00:09:22.791Z,90.80
2018-06-13T00:11:57.967Z,90.80
2018-06-13T00:14:33.102Z,90.80
2018-06-13T00:17:07.697Z,90.80
2018-06-13T00:19:42.293Z,90.80
2018-06-13T00:24:51.516Z,90.80
2018-06-13T00:27:26.429Z,90.80
2018-06-13T00:30:01.166Z,90.80
2018-06-13T00:32:36.081Z,90.70
2018-06-13T00:35:10.434Z,90.70
2018-06-13T00:37:45.204Z,90.80
2018-06-13T00:40:20.069Z,90.80
2018-06-13T00:42:54.888Z,90.80
2018-06-13T00:45:29.202Z,90.90
2018-06-13T00:48:03.762Z,91.00
2018-06-13T00:50:38.334Z,90.90
2018-06-13T00:53:12.937Z,90.90
2018-06-13T00:56:04.729Z,91.00
2018-06-13T00:58:39.260Z,90.90
2018-06-13T01:01:14.006Z,91.00
2018-06-13T01:03:48.990Z,91.00
2018-06-13T01:06:23.499Z,90.90
2018-06-13T01:08:58.021Z,90.90
2018-06-13T01:11:32.737Z,90.90
2018-06-13T01:14:07.451Z,90.90
2018-06-13T01:16:42.501Z,90.90
2018-06-13T01:19:16.970Z,90.90
2018-06-13T01:21:51.703Z,90.90
2018-06-13T01:24:27.034Z,90.90
2018-06-13T01:27:01.213Z,90.90
2018-06-13T01:29:35.945Z,90.90
2018-06-13T01:32:10.665Z,90.90
2018-06-13T01:34:45.182Z,90.90
2018-06-13T01:37:20.131Z,90.90
2018-06-13T01:39:54.767Z,90.90
2018-06-13T01:42:29.669Z,90.80
2018-06-13T01:45:04.605Z,91.10
2018-06-13T01:47:39.022Z,90.80
2018-06-13T01:50:13.505Z,90.90
2018-06-13T01:52:48.123Z,90.90
2018-06-13T01:55:22.827Z,90.90
2018-06-13T01:57:57.434Z,90.90
2018-06-13T02:00:32.034Z,90.90
2018-06-13T02:03:06.679Z,90.90
2018-06-13T02:05:41.298Z,90.90
2018-06-13T02:08:16.113Z,90.90
2018-06-13T02:10:50.766Z,90.90
2018-06-13T02:13:25.917Z,90.90
2018-06-13T02:16:00.239Z,90.90
2018-06-13T02:18:35.533Z,90.90
2018-06-13T02:21:10.817Z,91.20
2018-06-13T02:23:45.328Z,90.90
2018-06-13T02:26:20.044Z,90.90
2018-06-13T02:28:54.955Z,90.90
2018-06-13T02:31:29.746Z,90.90
2018-06-13T02:34:04.306Z,90.90
2018-06-13T02:36:39.095Z,90.90
2018-06-13T02:39:13.766Z,90.90
2018-06-13T02:41:48.469Z,90.90
2018-06-13T02:44:23.204Z,90.90
2018-06-13T02:46:58.001Z,91.00
2018-06-13T02:49:32.491Z,91.00
2018-06-13T02:52:07.085Z,90.90
2018-06-13T02:54:41.736Z,91.00
2018-06-13T02:57:16.752Z,90.70
2018-06-13T02:59:51.174Z,91.00
2018-06-13T03:02:26.136Z,91.00
2018-06-13T03:05:00.754Z,91.00
2018-06-13T03:07:35.675Z,91.00
2018-06-13T03:10:10.151Z,91.00
2018-06-13T03:12:44.932Z,90.90
2018-06-13T03:15:19.679Z,91.00
2018-06-13T03:17:54.163Z,91.00
2018-06-13T03:20:28.838Z,91.00
2018-06-13T03:23:03.746Z,91.00
2018-06-13T03:25:38.444Z,91.10
2018-06-13T03:28:13.397Z,91.10
2018-06-13T03:30:47.895Z,91.10
2018-06-13T03:33:22.651Z,91.10
2018-06-13T03:35:57.368Z,91.10
2018-06-13T03:38:32.142Z,91.20
2018-06-13T03:41:06.862Z,91.20
2018-06-13T03:43:41.612Z,91.10
2018-06-13T03:46:16.474Z,91.10
2018-06-13T03:48:51.393Z,91.10
2018-06-13T03:51:25.998Z,91.10
2018-06-13T03:54:00.805Z,91.50
2018-06-13T03:56:35.551Z,91.10
2018-06-13T03:59:10.414Z,91.20
2018-06-13T04:01:45.333Z,91.20
2018-06-13T04:04:19.972Z,91.10
2018-06-13T04:06:54.294Z,91.10
2018-06-13T04:09:28.898Z,91.10
2018-06-13T04:12:04.064Z,91.10
2018-06-13T04:14:38.635Z,91.20
2018-06-13T04:17:13.448Z,91.10
2018-06-13T04:19:48.041Z,91.20
2018-06-13T04:22:22.921Z,91.10
2018-06-13T04:24:57.513Z,91.10
2018-06-13T04:27:32.131Z,91.10
2018-06-13T04:30:07.115Z,91.10
2018-06-13T04:32:41.398Z,91.10
2018-06-13T04:35:16.489Z,91.00
2018-06-13T04:40:25.389Z,91.10
2018-06-13T04:43:00.199Z,90.90
2018-06-13T04:45:34.987Z,90.90
2018-06-13T04:48:09.281Z,90.80
2018-06-13T04:50:43.992Z,90.80
2018-06-13T04:53:18.664Z,90.80
2018-06-13T04:55:53.338Z,90.60
2018-06-13T04:58:28.459Z,90.60
2018-06-13T05:01:02.902Z,90.60
2018-06-13T05:03:37.725Z,90.50
2018-06-13T05:06:12.616Z,90.50
2018-06-13T05:08:47.221Z,90.50
2018-06-13T05:11:22.241Z,90.40
2018-06-13T05:13:56.394Z,90.40
2018-06-13T05:16:31.385Z,90.30
2018-06-13T05:19:05.817Z,90.10
2018-06-13T05:21:40.318Z,90.10
2018-06-13T05:24:15.285Z,90.10
2018-06-13T05:26:50.164Z,90.10
2018-06-13T05:29:24.927Z,90.40
2018-06-13T05:32:00.024Z,90.20
2018-06-13T05:34:34.394Z,90.20
2018-06-13T05:37:09.069Z,90.10
2018-06-13T05:39:43.813Z,90.00
2018-06-13T05:42:18.505Z,90.00
2018-06-13T05:44:53.337Z,90.00
2018-06-13T05:47:27.853Z,90.10
2018-06-13T05:50:02.554Z,90.20
2018-06-13T05:52:37.200Z,90.20
2018-06-13T05:55:12.010Z,90.00
2018-06-13T05:57:46.794Z,89.80
2018-06-13T06:00:21.431Z,89.90
2018-06-13T06:02:56.189Z,89.40
2018-06-13T06:05:30.992Z,89.40
2018-06-13T06:08:05.939Z,89.30
2018-06-13T06:10:40.417Z,89.40
2018-06-13T06:13:15.471Z,89.00
2018-06-13T06:15:50.011Z,89.60
2018-06-13T06:18:24.377Z,89.30
2018-06-13T06:20:59.127Z,89.50
2018-06-13T06:23:33.879Z,89.30
2018-06-13T06:26:09.003Z,88.70
2018-06-13T06:31:18.132Z,88.80
2018-06-13T06:33:52.938Z,89.00
2018-06-13T06:36:27.801Z,89.30
2018-06-13T06:39:05.216Z,89.30
2018-06-13T06:41:40.353Z,89.20
2018-06-13T06:44:14.962Z,89.30
2018-06-13T06:46:49.682Z,89.30
2018-06-13T06:49:24.198Z,88.70
2018-06-13T06:51:58.773Z,88.80
2018-06-13T06:54:33.415Z,88.90
2018-06-13T06:57:08.278Z,88.90
2018-06-13T06:59:43.355Z,88.50
2018-06-13T07:02:18.529Z,87.50
2018-06-13T07:04:53.302Z,88.10
2018-06-13T07:07:27.878Z,88.70
2018-06-13T07:10:02.541Z,89.00
2018-06-13T07:12:37.382Z,89.40
2018-06-13T07:15:12.204Z,89.70
2018-06-13T07:17:47.093Z,89.80
2018-06-13T07:20:21.510Z,89.60
2018-06-13T07:22:56.025Z,89.50
2018-06-13T07:25:30.766Z,89.40
2018-06-13T07:28:05.505Z,89.20
2018-06-13T07:30:40.421Z,88.80
2018-06-13T07:33:15.122Z,88.70
2018-06-13T07:35:49.648Z,88.80
2018-06-13T07:38:24.766Z,89.00
2018-06-13T07:40:59.173Z,89.00
2018-06-13T07:43:33.844Z,89.70
2018-06-13T07:46:08.557Z,89.10
2018-06-13T07:48:42.947Z,89.20
2018-06-13T07:51:17.734Z,89.20
2018-06-13T07:53:52.362Z,89.30
2018-06-13T07:56:27.082Z,89.40
2018-06-13T07:59:01.818Z,89.50
2018-06-13T08:01:36.456Z,89.50
2018-06-13T08:04:11.334Z,89.50
2018-06-13T08:06:45.718Z,90.00
2018-06-13T08:09:20.404Z,89.70
2018-06-13T08:11:55.155Z,89.30
2018-06-13T08:14:29.914Z,89.40
2018-06-13T08:17:04.564Z,89.60
2018-06-13T08:19:39.169Z,89.90
2018-06-13T08:22:13.682Z,90.00
2018-06-13T08:24:53.644Z,89.90
2018-06-13T08:27:28.583Z,89.90
2018-06-13T08:30:02.796Z,90.00
2018-06-13T08:32:37.562Z,90.00
2018-06-13T08:35:12.169Z,90.20
2018-06-13T08:37:46.779Z,90.20
2018-06-13T08:40:21.275Z,90.20
2018-06-13T08:42:55.905Z,90.20
2018-06-13T08:45:30.743Z,90.20
2018-06-13T08:48:05.351Z,90.20
2018-06-13T08:50:40.045Z,90.20
2018-06-13T08:53:14.805Z,90.20
2018-06-13T08:55:49.392Z,90.30
2018-06-13T08:58:24.030Z,90.20
2018-06-13T09:00:58.881Z,90.20
2018-06-13T09:03:33.605Z,90.20
2018-06-13T09:06:08.631Z,90.30
2018-06-13T09:08:43.651Z,90.50
2018-06-13T09:11:18.370Z,90.20
2018-06-13T09:13:52.969Z,90.10
2018-06-13T09:16:27.708Z,90.10
2018-06-13T09:19:02.319Z,90.10
2018-06-13T09:21:36.917Z,90.10
2018-06-13T09:24:11.485Z,90.00
2018-06-13T09:26:46.287Z,90.00
2018-06-13T09:29:21.256Z,90.00
2018-06-13T09:31:55.916Z,90.10
2018-06-13T09:34:30.604Z,90.10
2018-06-13T09:37:05.231Z,90.20
2018-06-13T09:42:14.505Z,90.10
2018-06-13T09:44:49.187Z,90.00
2018-06-13T09:47:23.860Z,89.90
2018-06-13T09:49:58.146Z,90.00
2018-06-13T09:52:32.791Z,90.00
2018-06-13T09:55:07.597Z,90.10
2018-06-13T09:57:42.151Z,90.10
2018-06-13T10:00:22.382Z,90.10
2018-06-13T10:02:57.492Z,90.10
2018-06-13T10:05:32.283Z,90.10
2018-06-13T10:10:41.680Z,90.10
2018-06-13T10:13:16.397Z,90.10
2018-06-13T10:15:51.042Z,90.00
2018-06-13T10:18:25.882Z,90.00
2018-06-13T10:21:00.326Z,90.10
2018-06-13T10:23:35.174Z,90.20
2018-06-13T10:26:09.874Z,90.10
2018-06-13T10:28:44.574Z,90.00
2018-06-13T10:31:19.382Z,90.00
2018-06-13T10:33:54.242Z,90.00
2018-06-13T10:36:28.842Z,90.00
2018-06-13T10:39:05.336Z,89.70
2018-06-13T10:41:40.138Z,89.80
2018-06-13T10:44:14.759Z,89.90
2018-06-13T10:46:49.435Z,90.00
2018-06-13T10:49:25.294Z,90.00
2018-06-13T10:51:59.824Z,90.00
2018-06-13T10:54:34.617Z,90.00
2018-06-13T10:57:09.310Z,90.10
2018-06-13T10:59:44.132Z,90.00
2018-06-13T11:02:18.630Z,90.00
2018-06-13T11:04:53.349Z,90.10
2018-06-13T11:07:28.008Z,89.90
2018-06-13T11:10:03.070Z,89.90
2018-06-13T11:12:37.567Z,90.00
2018-06-13T11:15:12.269Z,90.10
2018-06-13T11:17:46.998Z,90.10
2018-06-13T11:20:21.836Z,90.00
2018-06-13T11:22:56.639Z,90.00
2018-06-13T11:25:31.430Z,90.00
2018-06-13T11:28:06.152Z,90.00
2018-06-13T11:30:40.741Z,90.10
2018-06-13T11:33:15.257Z,90.10
2018-06-13T11:35:50.255Z,90.10
2018-06-13T11:38:24.602Z,90.10
2018-06-13T11:40:59.273Z,90.00
2018-06-13T11:43:34.306Z,90.00
2018-06-13T11:46:09.037Z,90.00
2018-06-13T11:48:44.095Z,90.00
2018-06-13T11:51:18.810Z,90.20
2018-06-13T11:53:53.706Z,90.00
2018-06-13T11:56:28.570Z,90.10
2018-06-13T11:59:03.249Z,90.10
2018-06-13T12:01:37.772Z,90.10
2018-06-13T12:04:12.470Z,90.00
2018-06-13T12:06:47.142Z,90.00
2018-06-13T12:09:22.425Z,89.90
2018-06-13T12:11:56.848Z,89.80
2018-06-13T12:14:31.663Z,89.70
2018-06-13T12:17:06.213Z,89.90
2018-06-13T12:19:40.903Z,89.90
2018-06-13T12:22:15.495Z,89.80
2018-06-13T12:24:50.382Z,89.70
2018-06-13T12:27:24.786Z,89.60
2018-06-13T12:29:59.714Z,89.70
2018-06-13T12:32:34.439Z,90.00
2018-06-13T12:35:08.899Z,89.90
2018-06-13T12:37:43.392Z,89.90
2018-06-13T12:40:18.404Z,89.70
2018-06-13T12:42:52.737Z,89.70
2018-06-13T12:45:27.417Z,90.00
2018-06-13T12:48:02.146Z,90.00
2018-06-13T12:50:36.878Z,89.90
2018-06-13T12:53:11.598Z,89.70
2018-06-13T12:55:46.219Z,89.70
2018-06-13T12:58:20.966Z,90.00
2018-06-13T13:00:55.692Z,89.90
2018-06-13T13:03:30.536Z,89.70
2018-06-13T13:06:06.386Z,89.70
2018-06-13T13:11:58.651Z,90.10
2018-06-13T13:14:33.555Z,89.90
2018-06-13T13:17:08.336Z,89.70
2018-06-13T13:19:42.956Z,89.70
2018-06-13T13:22:17.679Z,90.00
2018-06-13T13:24:52.355Z,89.80
2018-06-13T13:27:27.106Z,89.60
2018-06-13T13:32:41.673Z,90.00
2018-06-13T13:35:18.329Z,90.20
2018-06-13T13:37:53.367Z,89.80
2018-06-13T13:40:28.627Z,90.00
2018-06-13T13:43:03.173Z,90.00
2018-06-13T13:45:37.770Z,90.10
2018-06-13T13:48:12.501Z,90.00
2018-06-13T13:50:47.187Z,90.00
2018-06-13T13:53:21.869Z,90.00
2018-06-13T13:55:56.475Z,90.00
2018-06-13T13:58:31.122Z,89.90
2018-06-13T14:01:05.854Z,89.90
2018-06-13T14:06:15.027Z,90.00
2018-06-13T14:08:49.945Z,89.90
2018-06-13T14:11:24.338Z,89.60
2018-06-13T14:13:59.088Z,90.00
2018-06-13T14:16:33.819Z,89.70
2018-06-13T14:19:08.469Z,89.90
2018-06-13T14:21:43.082Z,89.80
2018-06-13T14:24:17.673Z,89.60
2018-06-13T14:26:52.414Z,89.60
2018-06-13T14:29:27.020Z,89.30
2018-06-13T14:32:01.856Z,89.10
2018-06-13T14:34:37.930Z,89.10
2018-06-13T14:37:12.280Z,89.10
2018-06-13T14:39:46.801Z,89.30
2018-06-13T14:42:21.132Z,89.20
2018-06-13T14:44:55.864Z,89.30
2018-06-13T14:47:30.504Z,89.70
2018-06-13T14:50:05.034Z,89.50
2018-06-13T14:52:39.773Z,89.50
2018-06-13T14:55:14.433Z,89.50
2018-06-13T14:57:49.167Z,89.50
2018-06-13T15:00:23.735Z,89.60
2018-06-13T15:02:59.228Z,89.60
2018-06-13T15:05:34.297Z,89.60
2018-06-13T15:08:08.918Z,89.70
2018-06-13T15:10:43.682Z,89.50
2018-06-13T15:13:18.269Z,89.70
2018-06-13T15:15:53.033Z,89.70
2018-06-13T15:18:28.015Z,89.50
2018-06-13T15:21:02.452Z,89.40
2018-06-13T15:23:37.401Z,89.30
2018-06-13T15:26:11.891Z,89.50
2018-06-13T15:28:46.444Z,89.50
2018-06-13T15:31:21.070Z,89.40
2018-06-13T15:33:55.915Z,89.70
2018-06-13T15:36:30.404Z,89.70
2018-06-13T15:39:09.450Z,89.20
2018-06-13T15:41:44.407Z,89.40
2018-06-13T15:44:18.570Z,89.50
2018-06-13T15:46:53.143Z,89.60
2018-06-13T15:49:27.662Z,89.70
2018-06-13T15:52:02.651Z,89.60
2018-06-13T15:54:37.050Z,89.50
2018-06-13T15:57:11.582Z,89.90
2018-06-13T15:59:46.221Z,89.80
2018-06-13T16:02:20.809Z,89.30
2018-06-13T16:04:55.510Z,89.60
2018-06-13T16:07:30.083Z,89.10
2018-06-13T16:10:05.026Z,89.20
2018-06-13T16:12:39.983Z,89.40
2018-06-13T16:15:14.529Z,89.50
2018-06-13T16:17:49.077Z,89.40
2018-06-13T16:20:23.589Z,89.50
2018-06-13T16:22:58.254Z,89.70
2018-06-13T16:25:33.151Z,89.70
2018-06-13T16:28:07.706Z,89.50
2018-06-13T16:30:42.361Z,89.50
2018-06-13T16:33:17.052Z,89.40
2018-06-13T16:35:52.091Z,89.40
2018-06-13T16:38:26.468Z,89.50
2018-06-13T16:41:01.299Z,89.70
2018-06-13T16:43:36.024Z,89.50
2018-06-13T16:46:10.840Z,89.50
2018-06-13T16:48:45.450Z,89.50
2018-06-13T16:51:37.669Z,89.20
2018-06-13T16:54:14.165Z,89.10
2018-06-13T16:56:48.816Z,88.80
2018-06-13T16:59:23.503Z,89.00
2018-06-13T17:01:58.385Z,88.80
2018-06-13T17:04:33.279Z,88.90
2018-06-13T17:07:07.622Z,88.80
2018-06-13T17:09:42.416Z,88.70
2018-06-13T17:12:17.072Z,88.50
2018-06-13T17:14:51.574Z,88.50
2018-06-13T17:17:26.993Z,89.20
2018-06-13T17:20:01.974Z,88.40
2018-06-13T17:22:36.674Z,88.50
2018-06-13T17:25:11.317Z,88.30
2018-06-13T17:27:45.954Z,88.40
2018-06-13T17:30:20.946Z,88.30
2018-06-13T17:32:55.401Z,88.40
2018-06-13T17:35:30.058Z,88.30
2018-06-13T17:38:04.913Z,88.10
2018-06-13T17:40:39.626Z,88.10
2018-06-13T17:43:14.305Z,88.20
2018-06-13T17:45:48.905Z,88.00
2018-06-13T17:48:23.664Z,87.50
2018-06-13T17:50:58.389Z,87.30
2018-06-13T17:53:32.969Z,87.60
2018-06-13T17:56:07.786Z,87.60
2018-06-13T17:58:42.553Z,87.70
2018-06-13T18:01:17.072Z,87.70
2018-06-13T18:03:51.773Z,87.90
2018-06-13T18:06:26.405Z,87.70
2018-06-13T18:09:01.175Z,87.70
2018-06-13T18:11:37.239Z,87.70
2018-06-13T18:14:11.512Z,87.80
2018-06-13T18:16:46.701Z,87.40
2018-06-13T18:19:21.519Z,87.60
2018-06-13T18:21:56.949Z,87.80
2018-06-13T18:24:31.592Z,87.70
2018-06-13T18:27:06.408Z,87.50
2018-06-13T18:29:40.817Z,87.60
2018-06-13T18:32:15.941Z,88.30
2018-06-13T18:34:56.076Z,88.00
2018-06-13T18:37:30.957Z,88.00
2018-06-13T18:40:06.164Z,87.80
2018-06-13T18:42:41.412Z,87.60
2018-06-13T18:45:16.378Z,87.60
2018-06-13T18:47:52.426Z,87.60
2018-06-13T18:50:29.097Z,87.60
2018-06-13T18:53:05.861Z,87.50
2018-06-13T18:55:41.938Z,87.70
2018-06-13T18:58:19.013Z,87.80
2018-06-13T19:00:56.271Z,87.90
2018-06-13T19:03:32.547Z,88.00
2018-06-13T19:06:09.742Z,88.00
2018-06-13T19:08:47.462Z,88.10
2018-06-13T19:11:25.394Z,88.20
2018-06-13T19:14:02.714Z,88.30
2018-06-13T19:16:39.827Z,88.30
2018-06-13T19:19:17.652Z,88.50
2018-06-13T19:21:54.803Z,88.50
2018-06-13T19:24:31.748Z,88.50
2018-06-13T19:27:09.202Z,88.60
2018-06-13T19:29:46.285Z,88.60
2018-06-13T19:32:24.083Z,88.70
2018-06-13T19:35:01.615Z,88.60
2018-06-13T19:37:39.985Z,88.60
2018-06-13T19:40:17.032Z,88.60
2018-06-13T19:42:54.536Z,88.50
2018-06-13T19:45:32.854Z,88.30
2018-06-13T19:48:15.178Z,88.50
2018-06-13T19:50:52.600Z,88.50
2018-06-13T19:53:34.842Z,88.70
2018-06-13T19:56:12.641Z,88.60
2018-06-13T19:58:49.804Z,88.60
2018-06-13T20:01:26.080Z,88.60
2018-06-13T20:04:08.168Z,88.60
2018-06-13T20:06:51.659Z,88.50
2018-06-13T20:09:28.720Z,88.50
2018-06-13T20:12:09.996Z,88.40
2018-06-13T20:14:51.912Z,88.50
2018-06-13T20:17:33.329Z,88.60
2018-06-13T20:20:09.113Z,88.60
2018-06-13T20:22:44.614Z,88.50
2018-06-13T20:25:25.548Z,88.40
2018-06-13T20:28:06.181Z,88.50
2018-06-13T20:30:47.145Z,88.60
2018-06-13T20:33:21.989Z,88.60
2018-06-13T20:35:56.930Z,88.60
2018-06-13T20:38:32.319Z,88.70
2018-06-13T20:41:07.115Z,88.70
2018-06-13T20:43:41.566Z,88.70
2018-06-13T20:46:16.159Z,88.70
2018-06-13T20:48:50.933Z,88.90
2018-06-13T20:51:31.269Z,89.00
2018-06-13T20:54:06.264Z,88.80
2018-06-13T20:56:41.081Z,88.80
2018-06-13T20:59:15.779Z,89.00
2018-06-13T21:01:50.424Z,89.10
2018-06-13T21:04:25.035Z,89.20
2018-06-13T21:06:59.641Z,89.30
2018-06-13T21:09:34.290Z,89.30
2018-06-13T21:12:09.032Z,89.20
2018-06-13T21:14:43.735Z,89.30
2018-06-13T21:17:18.323Z,89.30
2018-06-13T21:19:53.078Z,89.30
2018-06-13T21:22:27.697Z,89.20
2018-06-13T21:25:02.433Z,89.10
2018-06-13T21:27:37.255Z,89.00
2018-06-13T21:30:11.772Z,89.00
2018-06-13T21:32:46.820Z,88.90
2018-06-13T21:35:21.490Z,88.70
2018-06-13T21:37:56.034Z,88.70
2018-06-13T21:40:31.226Z,88.60
2018-06-13T21:43:05.725Z,88.60
2018-06-13T21:45:39.988Z,88.70
2018-06-13T21:48:14.501Z,88.80
2018-06-13T21:50:49.161Z,88.80
2018-06-13T21:53:24.171Z,88.80
2018-06-13T21:55:58.476Z,88.70
2018-06-13T21:58:33.076Z,88.70
2018-06-13T22:01:07.862Z,88.70
2018-06-13T22:03:42.435Z,88.60
2018-06-13T22:06:16.958Z,88.60
2018-06-13T22:08:51.585Z,88.70
2018-06-13T22:11:26.314Z,88.80
2018-06-13T22:14:01.375Z,88.60
2018-06-13T22:16:35.736Z,88.70
2018-06-13T22:19:10.334Z,88.70
2018-06-13T22:21:44.913Z,88.70
2018-06-13T22:24:19.732Z,88.60
2018-06-13T22:26:54.418Z,88.50
2018-06-13T22:29:29.165Z,88.60
2018-06-13T22:32:03.886Z,88.60
2018-06-13T22:34:41.602Z,88.60
2018-06-13T22:37:16.290Z,88.60
2018-06-13T22:39:50.906Z,89.00
2018-06-13T22:42:25.840Z,88.60
2018-06-13T22:45:00.408Z,88.70
2018-06-13T22:47:35.058Z,88.80
2018-06-13T22:50:10.118Z,88.90
2018-06-13T22:52:44.394Z,88.60
2018-06-13T22:55:19.206Z,88.50
2018-06-13T22:57:54.032Z,88.50
2018-06-13T23:01:05.297Z,88.60
2018-06-13T23:03:39.782Z,88.60
2018-06-13T23:06:14.076Z,88.70
2018-06-13T23:08:48.609Z,88.80
2018-06-13T23:11:23.433Z,88.90
2018-06-13T23:16:33.664Z,88.90
2018-06-13T23:19:08.234Z,89.00
2018-06-13T23:21:42.768Z,89.00
2018-06-13T23:24:17.453Z,88.90
2018-06-13T23:26:52.179Z,88.80
2018-06-13T23:29:26.793Z,88.80
2018-06-13T23:32:01.547Z,88.90
2018-06-13T23:34:36.125Z,88.70
2018-06-13T23:37:11.061Z,88.80
2018-06-13T23:39:45.782Z,88.80
2018-06-13T23:42:20.500Z,88.80
2018-06-13T23:44:54.934Z,88.80
2018-06-13T23:47:29.433Z,89.00
2018-06-13T23:50:04.064Z,89.00
2018-06-13T23:52:38.585Z,88.80
2018-06-13T23:55:13.338Z,88.80
2018-06-13T23:57:48.118Z,88.70
